Time;durP1;ratioP1;P1;durP2;ratioP2;P2;SDS_P1;SDS_P2;PMS_P1;PMS_P2;Temp;Humidity;BMP_temperature;BMP_pressure;BME280_temperature;BME280_humidity;BME280_pressure;Samples;Min_cycle;Max_cycle;Signal;HPM_P1;HPM_P2
2023/10/01 00:00:19;;;;;;;7.07;5.32;;;16.70;99.90;;;;;;5064111;27;20023;-36
2023/10/01 00:02:51;;;;;;;6.70;5.90;;;16.70;99.90;;;;;;5060945;27;20368;-35
2023/10/01 00:05:16;;;;;;;6.55;5.90;;;16.60;99.90;;;;;;5062040;27;20432;-34
2023/10/01 00:07:43;;;;;;;8.45;5.82;;;16.60;99.90;;;;;;5078809;27;20044;-35
2023/10/01 00:10:10;;;;;;;7.50;6.10;;;16.60;99.90;;;;;;5057123;28;20079;-35
2023/10/01 00:12:58;;;;;;;6.13;5.35;;;16.60;99.90;;;;;;5078231;27;20037;-34
2023/10/01 00:15:25;;;;;;;6.70;6.00;;;16.50;99.90;;;;;;5055713;27;20443;-35
2023/10/01 00:17:51;;;;;;;7.70;6.07;;;16.50;99.90;;;;;;5078923;27;20037;-34
2023/10/01 00:20:20;;;;;;;6.22;5.60;;;16.40;99.90;;;;;;5051566;27;20078;-35
2023/10/01 00:22:59;;;;;;;8.05;6.07;;;16.40;99.90;;;;;;5080252;27;20120;-35
2023/10/01 00:25:27;;;;;;;6.60;5.30;;;16.40;99.90;;;;;;5066470;27;20025;-34
2023/10/01 00:27:53;;;;;;;6.28;5.50;;;16.30;99.90;;;;;;5089424;27;20433;-34
2023/10/01 00:30:26;;;;;;;7.57;5.30;;;16.40;99.90;;;;;;5065395;27;20067;-34
2023/10/01 00:32:51;;;;;;;;;;;16.40;99.90;;;;;;5091271;27;20052;-34
2023/10/01 00:35:17;;;;;;;6.22;5.03;;;16.40;99.90;;;;;;5067249;27;19965;-35
2023/10/01 00:37:45;;;;;;;6.80;5.25;;;16.40;99.90;;;;;;5067223;27;20455;-35
2023/10/01 00:40:11;;;;;;;5.95;5.35;;;16.40;99.90;;;;;;5057657;27;20061;-34
2023/10/01 00:42:38;;;;;;;6.75;5.63;;;16.40;99.90;;;;;;5067355;27;20032;-35
2023/10/01 00:45:14;;;;;;;7.40;5.63;;;16.40;99.90;;;;;;5073090;27;20024;-34
2023/10/01 00:47:41;;;;;;;6.93;5.50;;;16.50;99.90;;;;;;5085039;27;20835;-34
2023/10/01 00:50:21;;;;;;;6.68;5.28;;;16.40;99.90;;;;;;5065916;27;20376;-34
2023/10/01 00:52:51;;;;;;;7.38;5.70;;;16.50;99.90;;;;;;5066609;27;20035;-35
2023/10/01 00:55:20;;;;;;;8.25;5.78;;;16.40;99.90;;;;;;5059718;27;20029;-35
2023/10/01 00:57:46;;;;;;;7.43;6.20;;;16.40;99.90;;;;;;5068393;27;20049;-38
2023/10/01 01:00:17;;;;;;;8.13;5.78;;;16.40;99.90;;;;;;5056164;27;20835;-35
2023/10/01 01:03:05;;;;;;;7.55;5.43;;;16.40;99.90;;;;;;5078927;27;20119;-35
2023/10/01 01:05:37;;;;;;;7.45;6.25;;;16.40;99.90;;;;;;5063451;27;20029;-34
2023/10/01 01:08:28;;;;;;;7.80;6.38;;;16.30;99.90;;;;;;5080446;27;20037;-35
2023/10/01 01:10:53;;;;;;;8.18;6.30;;;16.20;99.90;;;;;;5057625;27;20112;-34
2023/10/01 01:13:23;;;;;;;6.90;6.10;;;16.20;99.90;;;;;;5084953;27;20187;-33
2023/10/01 01:15:51;;;;;;;7.05;6.07;;;16.10;99.90;;;;;;5064232;27;20391;-33
2023/10/01 01:18:20;;;;;;;9.93;6.10;;;16.00;99.90;;;;;;5064451;27;20029;-34
2023/10/01 01:20:47;;;;;;;7.15;6.03;;;16.00;99.90;;;;;;5052490;27;20051;-34
2023/10/01 01:23:17;;;;;;;7.07;5.85;;;16.00;99.90;;;;;;5065390;27;20040;-35
2023/10/01 01:25:44;;;;;;;7.72;5.85;;;16.00;99.90;;;;;;5069885;27;20544;-35
2023/10/01 01:28:12;;;;;;;7.03;4.93;;;15.90;99.90;;;;;;5072643;27;20030;-35
2023/10/01 01:30:42;;;;;;;6.18;5.07;;;15.90;99.90;;;;;;5065471;27;20025;-35
2023/10/01 01:33:09;;;;;;;6.15;4.95;;;15.90;99.90;;;;;;5060794;27;20053;-36
2023/10/01 01:35:43;;;;;;;5.47;4.82;;;16.00;99.90;;;;;;5072407;27;20046;-35
2023/10/01 01:38:11;;;;;;;6.60;5.53;;;15.90;99.90;;;;;;5059021;27;20079;-36
2023/10/01 01:40:40;;;;;;;6.93;5.63;;;15.90;99.90;;;;;;5079663;27;20824;-35
2023/10/01 01:43:30;;;;;;;6.90;5.20;;;16.00;99.90;;;;;;5052105;28;20025;-35
2023/10/01 01:46:00;;;;;;;6.38;5.57;;;15.90;99.90;;;;;;5063334;27;20482;-35
2023/10/01 01:51:02;;;;;;;6.63;5.65;;;15.90;99.90;;;;;;5075660;27;20028;-35
2023/10/01 01:53:34;;;;;;;7.15;5.70;;;15.90;99.90;;;;;;5054010;28;20631;-36
2023/10/01 01:56:04;;;;;;;;;;;15.90;99.90;;;;;;5079677;27;20733;-36
2023/10/01 01:58:30;;;;;;;6.78;5.65;;;16.00;99.90;;;;;;5056383;28;20257;-36
2023/10/01 02:01:08;;;;;;;8.00;5.65;;;16.00;99.90;;;;;;5066471;27;20032;-35
2023/10/01 02:03:38;;;;;;;7.53;5.78;;;16.00;99.90;;;;;;5053890;28;20031;-35
2023/10/01 02:06:08;;;;;;;5.65;5.03;;;16.00;99.90;;;;;;5087300;27;20716;-36
2023/10/01 02:08:35;;;;;;;6.40;5.25;;;16.00;99.90;;;;;;5057697;27;20032;-36
2023/10/01 02:11:11;;;;;;;6.93;5.68;;;16.00;99.90;;;;;;5070433;27;20503;-36
2023/10/01 02:13:40;;;;;;;6.50;5.47;;;16.10;99.90;;;;;;5056567;27;20044;-35
2023/10/01 02:19:17;;;;;;;5.75;5.10;;;16.10;99.90;;;;;;5009363;28;20044;-36
2023/10/01 02:21:59;;;;;;;5.57;4.60;;;16.10;99.90;;;;;;5079609;27;20025;-34
2023/10/01 02:24:37;;;;;;;5.70;4.70;;;16.10;99.90;;;;;;5055260;28;20107;-36
2023/10/01 02:27:06;;;;;;;6.70;4.75;;;16.10;99.90;;;;;;5075953;27;20808;-35
2023/10/01 02:29:31;;;;;;;5.45;4.38;;;16.10;99.90;;;;;;5058425;27;20482;-34
2023/10/01 02:32:04;;;;;;;5.53;4.80;;;16.10;99.90;;;;;;5100558;27;20032;-35
2023/10/01 02:34:31;;;;;;;;;;;16.10;99.90;;;;;;5061201;28;20491;-35
2023/10/01 02:36:58;;;;;;;4.63;3.47;;;16.20;99.90;;;;;;5071617;27;19912;-35
2023/10/01 02:39:29;;;;;;;4.97;3.90;;;16.10;99.90;;;;;;5060257;27;20064;-34
2023/10/01 02:44:34;;;;;;;7.07;4.78;;;16.20;99.90;;;;;;5073501;27;20116;-35
2023/10/01 02:47:09;;;;;;;4.43;3.63;;;16.10;99.90;;;;;;5070724;27;20111;-35
2023/10/01 02:49:47;;;;;;;4.97;3.88;;;16.10;99.90;;;;;;5063530;27;20032;-35
2023/10/01 02:52:13;;;;;;;5.95;4.80;;;16.20;99.90;;;;;;5066119;27;20037;-34
2023/10/01 02:54:39;;;;;;;5.95;4.32;;;16.20;99.90;;;;;;5071207;27;20029;-35
2023/10/01 03:02:38;;;;;;;4.70;3.75;;;16.10;99.90;;;;;;5068582;27;20519;-34
2023/10/01 03:05:07;;;;;;;5.28;3.83;;;16.10;99.90;;;;;;5076909;27;20024;-35
2023/10/01 03:07:38;;;;;;;5.88;3.95;;;16.10;99.90;;;;;;5066880;27;20028;-35
2023/10/01 03:10:14;;;;;;;5.15;4.00;;;16.10;99.90;;;;;;5066327;27;20056;-34
2023/10/01 03:12:49;;;;;;;4.85;4.22;;;16.10;99.90;;;;;;5082918;27;20044;-35
2023/10/01 03:17:55;;;;;;;4.75;3.70;;;16.00;99.90;;;;;;5065340;27;20033;-35
2023/10/01 03:23:05;;;;;;;4.90;3.97;;;16.00;99.90;;;;;;5076999;27;20520;-35
2023/10/01 03:25:40;;;;;;;5.28;3.85;;;16.00;99.90;;;;;;5070662;27;20052;-36
2023/10/01 03:28:15;;;;;;;5.32;3.80;;;16.00;99.90;;;;;;5074959;27;20032;-35
2023/10/01 03:30:46;;;;;;;4.65;3.80;;;16.00;99.90;;;;;;5060061;27;20107;-36
2023/10/01 03:33:16;;;;;;;5.45;4.00;;;16.00;99.90;;;;;;5074846;27;20064;-35
2023/10/01 03:35:48;;;;;;;6.65;4.47;;;16.00;99.90;;;;;;5074090;27;20147;-35
2023/10/01 03:38:15;;;;;;;5.75;3.92;;;16.00;99.90;;;;;;5077143;27;20043;-37
2023/10/01 03:41:00;;;;;;;7.20;4.55;;;16.00;99.90;;;;;;5064588;27;20054;-36
2023/10/01 03:43:32;;;;;;;6.72;3.50;;;16.00;99.90;;;;;;5068752;27;20109;-36
2023/10/01 03:46:14;;;;;;;5.38;3.70;;;15.90;99.90;;;;;;5060885;27;20460;-36
2023/10/01 03:51:52;;;;;;;5.28;3.40;;;16.00;99.90;;;;;;5065207;27;20043;-36
2023/10/01 03:54:20;;;;;;;6.63;3.60;;;15.90;99.90;;;;;;5069726;27;20117;-36
2023/10/01 03:56:58;;;;;;;5.60;3.63;;;15.90;99.90;;;;;;5063853;27;20021;-35
2023/10/01 03:59:28;;;;;;;4.35;3.35;;;16.00;99.90;;;;;;5079960;27;20108;-35
2023/10/01 04:01:59;;;;;;;4.97;3.47;;;16.00;99.90;;;;;;5073028;27;20029;-35
2023/10/01 04:04:28;;;;;;;4.90;3.33;;;16.00;99.90;;;;;;5082623;27;20025;-35
2023/10/01 04:06:55;;;;;;;5.82;3.28;;;16.00;99.90;;;;;;5061819;27;22033;-35
2023/10/01 04:09:26;;;;;;;4.63;3.42;;;16.00;99.90;;;;;;5069890;27;20056;-35
2023/10/01 04:12:18;;;;;;;5.53;3.80;;;16.00;99.90;;;;;;5058388;27;20036;-35
2023/10/01 04:14:53;;;;;;;4.15;3.13;;;16.00;99.90;;;;;;5061413;27;20558;-35
2023/10/01 04:17:19;;;;;;;4.78;3.35;;;16.00;99.90;;;;;;5067569;27;20524;-34
2023/10/01 04:19:56;;;;;;;4.43;3.33;;;16.10;99.90;;;;;;5076713;27;20048;-35
2023/10/01 04:22:25;;;;;;;4.97;3.10;;;16.10;99.90;;;;;;5062137;27;20526;-34
2023/10/01 04:25:00;;;;;;;4.28;2.97;;;16.10;99.90;;;;;;5067296;27;20052;-34
2023/10/01 04:27:30;;;;;;;5.60;3.53;;;16.10;99.90;;;;;;5060078;27;20020;-34
2023/10/01 04:30:00;;;;;;;5.00;3.15;;;16.10;99.90;;;;;;5083913;27;20030;-33
2023/10/01 04:32:27;;;;;;;5.80;3.05;;;16.10;99.90;;;;;;5064690;27;20427;-34
2023/10/01 04:34:58;;;;;;;5.55;3.53;;;16.10;99.90;;;;;;5058342;27;20052;-34
2023/10/01 04:37:41;;;;;;;6.95;3.95;;;16.10;99.90;;;;;;5061133;27;20036;-35
2023/10/01 04:42:56;;;;;;;5.22;3.15;;;16.10;99.90;;;;;;5064376;27;20040;-34
2023/10/01 04:45:25;;;;;;;6.05;3.63;;;16.10;99.90;;;;;;5077157;27;20022;-34
2023/10/01 04:47:55;;;;;;;6.30;3.85;;;16.10;99.90;;;;;;5063681;27;20085;-34
2023/10/01 04:50:27;;;;;;;6.68;3.40;;;16.10;99.90;;;;;;5076371;27;20036;-34
2023/10/01 04:52:55;;;;;;;7.17;3.53;;;16.10;99.90;;;;;;5069004;27;20410;-34
2023/10/01 04:55:22;;;;;;;5.43;3.33;;;16.10;99.90;;;;;;5077837;27;20278;-32
2023/10/01 04:57:48;;;;;;;5.60;3.20;;;16.00;99.90;;;;;;5071405;27;20475;-35
2023/10/01 05:00:14;;;;;;;4.32;2.97;;;16.10;99.90;;;;;;5057517;27;20032;-34
2023/10/01 05:02:43;;;;;;;4.55;3.40;;;16.10;99.90;;;;;;5055052;27;20037;-35
2023/10/01 05:05:11;;;;;;;7.13;3.20;;;16.00;99.90;;;;;;5060919;27;20033;-35
2023/10/01 05:07:36;;;;;;;4.07;3.20;;;16.00;99.90;;;;;;5067775;27;20483;-35
2023/10/01 05:10:04;;;;;;;5.05;3.03;;;16.10;99.90;;;;;;5056659;28;20029;-36
2023/10/01 05:12:31;;;;;;;4.53;3.08;;;16.00;99.90;;;;;;5068447;27;20424;-36
2023/10/01 05:14:59;;;;;;;5.07;3.38;;;16.10;99.90;;;;;;5056759;28;20046;-37
2023/10/01 05:17:30;;;;;;;5.22;3.00;;;16.10;99.90;;;;;;5064569;27;20471;-36
2023/10/01 05:19:58;;;;;;;5.70;3.15;;;16.10;99.90;;;;;;5054910;28;20035;-35
2023/10/01 05:22:25;;;;;;;5.60;3.78;;;16.10;99.90;;;;;;5082647;27;20029;-40
2023/10/01 05:24:51;;;;;;;5.70;3.38;;;16.10;99.90;;;;;;5055936;27;20494;-36
2023/10/01 05:27:19;;;;;;;4.43;3.25;;;16.10;99.90;;;;;;5069339;27;20036;-35
2023/10/01 05:29:46;;;;;;;4.88;3.15;;;16.10;99.90;;;;;;5057367;27;20060;-36
2023/10/01 05:32:18;;;;;;;5.45;3.35;;;16.10;99.90;;;;;;5067359;27;20032;-35
2023/10/01 05:34:46;;;;;;;6.10;3.70;;;16.10;99.90;;;;;;5068111;27;20530;-41
2023/10/01 05:37:20;;;;;;;6.30;4.03;;;16.10;99.90;;;;;;5072366;27;20029;-35
2023/10/01 05:39:55;;;;;;;5.70;3.55;;;16.20;99.90;;;;;;5061826;27;20029;-36
2023/10/01 05:42:34;;;;;;;5.68;3.75;;;16.10;99.90;;;;;;5062450;27;20029;-35
2023/10/01 05:44:59;;;;;;;6.03;3.10;;;16.20;99.90;;;;;;5054238;27;20021;-34
2023/10/01 05:47:41;;;;;;;5.05;3.80;;;16.20;99.90;;;;;;5070984;27;20442;-34
2023/10/01 05:50:11;;;;;;;4.93;3.42;;;16.20;99.90;;;;;;5062889;27;20112;-39
2023/10/01 05:52:40;;;;;;;8.35;3.75;;;16.20;99.90;;;;;;5061089;27;20041;-34
2023/10/01 05:55:08;;;;;;;7.10;4.28;;;16.20;99.90;;;;;;5056621;27;20084;-35
2023/10/01 05:57:37;;;;;;;6.30;3.78;;;16.20;99.90;;;;;;5071056;27;20031;-35
2023/10/01 06:00:03;;;;;;;8.27;3.22;;;16.20;99.90;;;;;;5067322;27;20017;-35
2023/10/01 06:02:41;;;;;;;6.78;3.92;;;16.20;99.90;;;;;;5080623;27;20564;-36
2023/10/01 06:07:55;;;;;;;6.25;3.72;;;16.20;99.90;;;;;;5069039;27;20551;-36
2023/10/01 06:10:27;;;;;;;6.88;3.90;;;16.20;99.90;;;;;;5060241;27;20033;-34
2023/10/01 06:12:57;;;;;;;6.28;3.65;;;16.20;99.90;;;;;;5064615;27;20036;-34
2023/10/01 06:15:29;;;;;;;8.30;4.80;;;16.20;99.90;;;;;;5067757;27;20105;-36
2023/10/01 06:17:55;;;;;;;5.82;3.97;;;16.20;99.90;;;;;;5064374;27;20387;-36
2023/10/01 06:20:23;;;;;;;6.55;3.78;;;16.20;99.90;;;;;;5062118;27;20028;-37
2023/10/01 06:23:10;;;;;;;7.13;4.25;;;16.30;99.90;;;;;;5064953;27;20395;-41
2023/10/01 06:25:43;;;;;;;5.78;3.65;;;16.30;99.90;;;;;;5082999;27;20157;-36
2023/10/01 06:28:09;;;;;;;6.25;3.60;;;16.30;99.90;;;;;;5066756;27;20169;-36
2023/10/01 06:30:39;;;;;;;7.28;3.72;;;16.30;99.90;;;;;;5072580;27;20051;-36
2023/10/01 06:33:08;;;;;;;5.10;3.55;;;16.30;99.90;;;;;;5062292;27;20123;-34
2023/10/01 06:35:35;;;;;;;5.15;3.75;;;16.40;99.90;;;;;;5058923;27;20051;-35
2023/10/01 06:38:04;;;;;;;6.78;4.20;;;16.40;99.90;;;;;;5060249;28;20067;-35
2023/10/01 06:40:31;;;;;;;6.68;3.95;;;16.40;99.90;;;;;;5084669;27;20057;-35
2023/10/01 06:42:59;;;;;;;5.63;4.18;;;16.40;99.90;;;;;;5060470;28;20028;-35
2023/10/01 06:45:49;;;;;;;7.88;4.45;;;16.40;99.90;;;;;;5076919;27;20028;-34
2023/10/01 06:48:15;;;;;;;6.10;4.15;;;16.40;99.90;;;;;;5058180;28;20043;-34
2023/10/01 06:50:44;;;;;;;6.05;3.90;;;16.40;99.90;;;;;;5077785;27;20027;-34
2023/10/01 06:53:10;;;;;;;7.55;4.57;;;16.40;99.90;;;;;;5057959;27;20115;-34
2023/10/01 06:55:36;;;;;;;6.97;3.90;;;16.50;99.90;;;;;;5064638;27;20539;-36
2023/10/01 06:58:06;;;;;;;6.43;3.60;;;16.50;99.90;;;;;;5059953;27;20119;-34
2023/10/01 07:00:36;;;;;;;5.80;3.53;;;16.50;99.90;;;;;;5066356;27;20025;-35
2023/10/01 07:03:17;;;;;;;5.72;3.83;;;16.60;99.90;;;;;;5058629;27;20028;-44
2023/10/01 07:05:47;;;;;;;6.53;3.95;;;16.60;99.90;;;;;;5077671;27;20117;-43
2023/10/01 07:08:16;;;;;;;6.78;4.07;;;16.70;99.90;;;;;;5072443;27;20031;-42
2023/10/01 07:10:42;;;;;;;6.90;3.85;;;16.70;99.90;;;;;;5069654;27;20021;-44
2023/10/01 07:13:10;;;;;;;8.48;4.65;;;16.70;99.90;;;;;;5063222;27;20770;-44
2023/10/01 07:15:39;;;;;;;8.48;4.40;;;16.70;99.90;;;;;;5065490;27;20028;-42
2023/10/01 07:18:15;;;;;;;7.75;4.68;;;16.70;99.90;;;;;;5057842;27;20027;-44
2023/10/01 07:20:49;;;;;;;6.90;4.70;;;16.60;99.90;;;;;;5084468;27;20325;-42
2023/10/01 07:23:21;;;;;;;8.82;4.68;;;16.50;99.90;;;;;;5064548;27;20544;-43
2023/10/01 07:25:49;;;;;;;7.03;4.25;;;16.50;99.90;;;;;;5067246;27;20024;-43
2023/10/01 07:28:18;;;;;;;7.22;4.60;;;16.40;99.90;;;;;;5055865;28;20388;-43
2023/10/01 07:30:51;;;;;;;6.43;4.20;;;16.40;99.90;;;;;;5065970;27;20045;-43
2023/10/01 07:33:18;;;;;;;8.27;4.20;;;16.40;99.90;;;;;;5068443;27;20384;-43
2023/10/01 07:35:45;;;;;;;8.23;5.03;;;16.50;99.90;;;;;;5074390;27;20859;-43
2023/10/01 07:38:15;;;;;;;8.35;5.25;;;16.50;99.90;;;;;;5061471;27;20504;-42
2023/10/01 07:40:59;;;;;;;8.95;5.25;;;16.50;99.90;;;;;;5064318;27;20015;-43
2023/10/01 07:43:29;;;;;;;8.55;4.80;;;16.50;99.90;;;;;;5050706;27;20035;-44
2023/10/01 07:45:59;;;;;;;7.30;4.80;;;16.60;99.90;;;;;;5064328;27;20025;-43
2023/10/01 07:48:29;;;;;;;8.00;4.68;;;16.60;99.90;;;;;;5074171;27;20669;-43
2023/10/01 07:51:04;;;;;;;10.95;5.50;;;16.60;99.90;;;;;;5066607;27;20025;-43
2023/10/01 07:53:42;;;;;;;8.70;5.30;;;16.70;99.90;;;;;;5066204;27;20290;-42
2023/10/01 07:56:15;;;;;;;8.23;5.05;;;16.70;99.90;;;;;;5064922;27;20030;-43
2023/10/01 07:58:56;;;;;;;7.45;4.53;;;16.80;99.90;;;;;;5067523;27;20037;-42
2023/10/01 08:01:36;;;;;;;6.77;4.50;;;16.80;99.90;;;;;;5071675;27;20074;-43
2023/10/01 08:04:08;;;;;;;8.32;5.03;;;16.90;99.90;;;;;;5061534;27;20395;-43
2023/10/01 08:06:43;;;;;;;8.48;4.78;;;16.90;99.90;;;;;;5065609;27;20091;-43
2023/10/01 08:09:13;;;;;;;7.63;4.80;;;16.90;99.90;;;;;;5055098;27;20035;-43
2023/10/01 08:14:26;;;;;;;7.97;5.40;;;17.00;99.90;;;;;;5066882;27;20043;-43
2023/10/01 08:16:59;;;;;;;8.38;4.97;;;17.10;99.90;;;;;;5066420;27;20035;-44
2023/10/01 08:19:41;;;;;;;9.07;5.72;;;17.10;99.90;;;;;;5063571;27;20016;-44
2023/10/01 08:22:43;;;;;;;9.80;5.60;;;17.10;99.90;;;;;;5064945;27;20495;-44
2023/10/01 08:25:12;;;;;;;11.05;6.32;;;17.20;99.90;;;;;;5056099;27;20107;-43
2023/10/01 08:28:08;;;;;;;12.90;6.55;;;17.30;99.90;;;;;;5080287;27;20032;-44
2023/10/01 08:30:43;;;;;;;9.77;6.00;;;17.30;99.90;;;;;;5059858;27;20041;-42
2023/10/01 08:33:32;;;;;;;;;;;17.40;99.90;;;;;;5065381;27;20059;-42
2023/10/01 08:36:17;;;;;;;6.28;4.43;;;17.40;99.90;;;;;;5058133;27;20798;-42
2023/10/01 08:41:32;;;;;;;8.65;5.70;;;17.60;99.90;;;;;;5069150;27;20065;-42
2023/10/01 08:44:09;;;;;;;8.55;5.78;;;17.60;99.90;;;;;;5073761;27;20035;-44
2023/10/01 08:46:40;;;;;;;10.20;5.35;;;17.70;99.90;;;;;;5065605;27;20025;-43
2023/10/01 08:49:23;;;;;;;8.05;5.57;;;17.80;99.90;;;;;;5091146;27;20048;-44
2023/10/01 08:51:53;;;;;;;10.73;6.28;;;17.80;99.90;;;;;;5056771;27;20819;-44
2023/10/01 08:54:29;;;;;;;8.25;4.68;;;17.90;99.90;;;;;;5076973;27;20466;-43
2023/10/01 08:56:57;;;;;;;10.50;6.10;;;18.00;99.90;;;;;;5057974;27;20025;-44
2023/10/01 08:59:23;;;;;;;11.18;5.72;;;18.00;99.90;;;;;;5068300;27;20020;-43
2023/10/01 09:01:52;;;;;;;11.73;6.72;;;18.10;99.90;;;;;;5084273;27;20023;-44
2023/10/01 09:07:10;;;;;;;10.75;6.60;;;18.20;99.90;;;;;;5091394;27;20486;-43
2023/10/01 09:09:51;;;;;;;10.48;5.60;;;18.20;99.90;;;;;;5071369;27;20698;-44
2023/10/01 09:12:20;;;;;;;7.93;5.07;;;18.30;99.90;;;;;;5058167;27;20033;-43
2023/10/01 09:14:52;;;;;;;11.80;6.45;;;18.30;99.90;;;;;;5079702;27;20017;-43
2023/10/01 09:17:25;;;;;;;11.13;6.57;;;18.40;99.90;;;;;;5077020;27;20064;-43
2023/10/01 09:19:51;;;;;;;9.60;5.68;;;18.50;99.90;;;;;;5101029;27;20014;-43
2023/10/01 09:23:03;;;;;;;10.38;6.03;;;18.50;99.90;;;;;;5086248;27;20028;-43
2023/10/01 09:25:16;;;;;;;10.10;6.07;;;18.60;99.90;;;;;;5094294;27;20026;-43
2023/10/01 09:28:19;;;;;;;8.82;5.20;;;18.60;99.90;;;;;;5153668;27;20030;-44
2023/10/01 09:33:48;;;;;;;10.10;5.20;;;18.70;99.90;;;;;;5041667;28;20052;-43
2023/10/01 09:36:33;;;;;;;8.93;4.85;;;18.80;99.90;;;;;;5125517;27;20022;-43
2023/10/01 09:39:03;;;;;;;9.00;5.45;;;18.90;99.90;;;;;;5062087;28;20037;-43
2023/10/01 09:41:31;;;;;;;9.02;5.50;;;18.90;99.90;;;;;;5130533;27;20033;-43
2023/10/01 09:43:58;;;;;;;10.70;5.97;;;19.00;99.90;;;;;;5064110;28;20483;-44
2023/10/01 09:46:26;;;;;;;10.98;6.32;;;19.10;99.90;;;;;;5131330;27;20042;-43
2023/10/01 09:49:00;;;;;;;12.07;6.45;;;19.10;99.90;;;;;;5064980;27;20372;-43
2023/10/01 09:51:31;;;;;;;9.30;5.55;;;19.20;99.90;;;;;;5126916;27;20037;-44
2023/10/01 09:54:01;;;;;;;10.00;5.80;;;19.10;99.90;;;;;;5057174;28;20044;-43
2023/10/01 09:56:31;;;;;;;11.48;5.88;;;19.20;99.90;;;;;;5120685;27;20018;-42
2023/10/01 09:59:07;;;;;;;7.88;5.18;;;19.20;99.90;;;;;;5069736;27;20025;-42
2023/10/01 10:01:35;;;;;;;9.05;5.63;;;19.30;99.90;;;;;;5117655;27;20055;-43
2023/10/01 10:04:06;;;;;;;9.63;5.63;;;19.40;99.90;;;;;;5074209;27;20459;-42
2023/10/01 10:06:32;;;;;;;10.60;5.05;;;19.40;99.90;;;;;;5108748;27;20025;-43
2023/10/01 10:09:03;;;;;;;9.48;5.80;;;19.50;99.90;;;;;;5085093;27;20145;-43
2023/10/01 10:11:43;;;;;;;10.83;6.10;;;19.50;99.90;;;;;;5099937;27;20836;-43
2023/10/01 10:14:25;;;;;;;9.55;5.53;;;19.60;99.90;;;;;;5084790;27;20072;-44
2023/10/01 10:17:07;;;;;;;9.98;5.63;;;19.70;99.90;;;;;;5106186;27;20049;-43
2023/10/01 10:19:53;;;;;;;9.90;6.13;;;19.80;99.90;;;;;;5074145;27;20032;-43
2023/10/01 10:22:19;;;;;;;9.75;5.63;;;19.90;99.90;;;;;;5084376;27;20032;-43
2023/10/01 10:24:48;;;;;;;11.93;5.72;;;20.00;99.90;;;;;;5159881;27;20022;-43
2023/10/01 10:27:33;;;;;;;10.88;5.85;;;20.00;99.90;;;;;;5151690;27;20030;-43
2023/10/01 10:30:01;;;;;;;10.93;5.50;;;20.20;99.90;;;;;;5055810;28;20433;-43
2023/10/01 10:32:42;;;;;;;9.10;5.72;;;20.20;99.90;;;;;;5083987;27;20098;-43
2023/10/01 10:35:12;;;;;;;9.50;5.40;;;20.30;99.90;;;;;;5065367;27;20037;-43
2023/10/01 10:37:38;;;;;;;9.30;5.32;;;20.50;99.90;;;;;;5110472;27;20030;-44
2023/10/01 10:43:06;;;;;;;9.20;5.53;;;20.90;99.90;;;;;;5062294;27;20133;-43
2023/10/01 10:45:47;;;;;;;9.60;6.32;;;21.00;99.90;;;;;;5162835;27;20397;-43
2023/10/01 10:48:16;;;;;;;10.02;5.93;;;21.20;99.90;;;;;;5084863;27;20041;-43
2023/10/01 10:50:46;;;;;;;9.85;5.60;;;21.20;99.90;;;;;;5164537;27;20414;-43
2023/10/01 10:53:19;;;;;;;9.30;6.05;;;21.30;99.90;;;;;;5061124;27;20626;-43
2023/10/01 10:56:06;;;;;;;7.95;5.10;;;21.40;99.90;;;;;;5063585;28;20021;-43
2023/10/01 10:59:01;;;;;;;8.35;5.40;;;21.50;99.90;;;;;;5059280;27;20507;-43
2023/10/01 11:01:27;;;;;;;9.82;6.07;;;21.50;99.90;;;;;;5053510;28;20499;-45
2023/10/01 11:03:59;;;;;;;13.52;6.97;;;21.60;99.90;;;;;;5086167;27;20032;-44
2023/10/01 11:06:47;;;;;;;;;;;21.60;99.90;;;;;;5057033;28;20021;-42
2023/10/01 11:09:22;;;;;;;11.55;5.78;;;21.60;99.90;;;;;;5058119;27;20006;-43
2023/10/01 11:11:48;;;;;;;11.40;6.72;;;21.60;99.90;;;;;;5052064;27;20029;-43
2023/10/01 11:14:17;;;;;;;8.30;5.47;;;21.50;99.90;;;;;;5082753;27;20123;-43
2023/10/01 11:16:44;;;;;;;11.60;5.60;;;21.50;99.90;;;;;;5058388;27;20103;-43
2023/10/01 11:19:36;;;;;;;10.05;5.65;;;21.50;99.90;;;;;;5069464;27;20036;-43
2023/10/01 11:22:04;;;;;;;11.48;6.70;;;21.40;99.90;;;;;;5088863;27;20056;-44
2023/10/01 11:24:40;;;;;;;14.98;8.35;;;21.40;99.90;;;;;;5066878;27;20051;-44
2023/10/01 11:27:22;;;;;;;14.85;8.88;;;21.40;99.90;;;;;;5076071;27;20080;-44
2023/10/01 11:30:19;;;;;;;14.13;7.70;;;21.50;99.90;;;;;;5078661;27;20028;-44
2023/10/01 11:38:46;;;;;;;10.55;6.57;;;21.50;99.90;;;;;;5025868;27;20392;-43
2023/10/01 11:41:13;;;;;;;12.45;6.78;;;21.60;99.90;;;;;;5061318;27;20025;-43
2023/10/01 11:43:42;;;;;;;9.88;6.43;;;21.70;99.90;;;;;;5065560;27;20035;-43
2023/10/01 11:46:24;;;;;;;11.80;6.55;;;21.70;99.90;;;;;;5061887;27;20075;-43
2023/10/01 11:49:05;;;;;;;10.30;6.55;;;21.70;99.90;;;;;;5063756;27;20444;-43
2023/10/01 11:51:50;;;;;;;10.65;6.28;;;21.80;99.90;;;;;;5060983;27;20071;-43
2023/10/01 11:54:20;;;;;;;9.02;5.75;;;21.80;99.90;;;;;;5084412;27;20033;-43
2023/10/01 11:56:47;;;;;;;10.65;5.95;;;21.90;99.90;;;;;;5099456;27;20029;-44
2023/10/01 11:59:19;;;;;;;10.82;6.10;;;21.90;99.90;;;;;;5160271;27;20841;-43
2023/10/01 12:01:50;;;;;;;10.85;5.95;;;21.90;99.90;;;;;;5108905;27;20018;-44
2023/10/01 12:07:15;;;;;;;11.27;6.45;;;22.00;99.90;;;;;;5098555;27;20171;-42
2023/10/01 12:09:48;;;;;;;9.07;6.03;;;22.00;99.90;;;;;;5101137;27;20037;-43
2023/10/01 12:12:15;;;;;;;10.55;6.00;;;22.10;99.90;;;;;;5121006;27;20021;-43
2023/10/01 12:14:53;;;;;;;8.75;5.82;;;22.10;99.90;;;;;;5070835;27;20029;-43
2023/10/01 12:17:28;;;;;;;9.50;5.60;;;22.20;99.90;;;;;;5068356;27;20900;-43
2023/10/01 12:20:01;;;;;;;9.68;5.30;;;22.20;99.90;;;;;;5078831;27;20027;-43
2023/10/01 12:22:28;;;;;;;8.35;5.45;;;22.30;99.90;;;;;;5071204;27;20039;-43
2023/10/01 12:24:57;;;;;;;9.38;5.75;;;22.30;99.90;;;;;;5068649;27;20074;-43
2023/10/01 12:27:45;;;;;;;8.40;5.38;;;22.30;99.90;;;;;;5099296;27;20024;-44
2023/10/01 12:30:27;;;;;;;9.82;5.28;;;22.30;99.90;;;;;;5062323;27;20088;-43
2023/10/01 12:32:55;;;;;;;9.05;5.30;;;22.30;99.90;;;;;;5060162;27;20052;-43
2023/10/01 12:35:27;;;;;;;10.07;6.13;;;22.40;99.90;;;;;;5069679;27;20039;-42
2023/10/01 12:40:43;;;;;;;8.10;5.10;;;22.50;99.90;;;;;;5064713;27;20764;-42
2023/10/01 12:45:54;;;;;;;8.27;5.13;;;22.50;99.90;;;;;;5058800;27;20037;-42
2023/10/01 12:48:20;;;;;;;7.47;5.10;;;22.60;99.90;;;;;;5129381;27;20030;-42
2023/10/01 12:51:03;;;;;;;6.70;4.70;;;22.70;99.90;;;;;;5159987;27;20022;-47
2023/10/01 12:53:58;;;;;;;8.73;4.95;;;22.70;99.90;;;;;;5107450;27;20488;-43
2023/10/01 12:56:44;;;;;;;9.45;5.15;;;22.80;99.90;;;;;;5103434;27;20017;-42
2023/10/01 12:59:19;;;;;;;8.00;5.32;;;22.80;99.90;;;;;;5103836;27;20021;-43
2023/10/01 13:01:53;;;;;;;7.85;5.22;;;22.90;99.90;;;;;;5078181;27;20036;-43
2023/10/01 13:04:22;;;;;;;6.90;4.75;;;23.00;99.90;;;;;;5105134;27;20413;-43
2023/10/01 13:07:11;;;;;;;7.05;4.60;;;23.00;99.90;;;;;;5081124;27;20688;-42
2023/10/01 13:12:17;;;;;;;9.07;5.32;;;23.20;99.90;;;;;;5074638;27;20638;-43
2023/10/01 13:14:43;;;;;;;8.32;4.63;;;23.30;99.90;;;;;;5098487;27;20028;-43
2023/10/01 13:17:22;;;;;;;8.93;5.20;;;23.40;99.90;;;;;;5069032;27;20020;-43
2023/10/01 13:20:00;;;;;;;7.50;4.38;;;23.50;99.90;;;;;;5104190;27;20075;-43
2023/10/01 13:22:25;;;;;;;6.72;4.22;;;23.50;99.90;;;;;;5074237;27;20111;-44
2023/10/01 13:24:54;;;;;;;8.45;4.93;;;23.60;99.90;;;;;;5110075;27;20169;-43
2023/10/01 13:27:26;;;;;;;9.27;5.38;;;23.60;99.90;;;;;;5097205;27;20377;-43
2023/10/01 13:30:18;;;;;;;8.32;4.78;;;23.60;99.90;;;;;;5098972;27;20106;-42
2023/10/01 13:32:57;;;;;;;8.18;5.03;;;23.60;99.90;;;;;;5156762;27;20038;-42
2023/10/01 13:35:50;;;;;;;9.45;4.47;;;23.50;99.90;;;;;;5122872;27;20036;-42
2023/10/01 14:11:08;;;;;;;8.95;5.20;;;23.40;99.90;;;;;;5119155;27;20047;-43
2023/10/01 14:13:36;;;;;;;8.27;5.25;;;23.40;99.90;;;;;;5067664;27;20032;-43
2023/10/01 14:16:11;;;;;;;7.65;5.38;;;23.40;99.90;;;;;;5119553;27;20546;-44
2023/10/01 14:18:41;;;;;;;9.32;5.68;;;23.50;99.90;;;;;;5065098;27;20075;-43
2023/10/01 14:21:15;;;;;;;9.35;5.20;;;23.60;99.90;;;;;;5115984;27;20047;-44
2023/10/01 14:23:42;;;;;;;9.60;5.15;;;23.60;99.90;;;;;;5060454;27;20035;-44
2023/10/01 14:26:13;;;;;;;10.73;5.22;;;23.70;99.90;;;;;;5099505;27;20065;-43
2023/10/01 14:28:40;;;;;;;7.20;4.78;;;23.70;99.90;;;;;;5069582;27;20032;-44
2023/10/01 14:31:06;;;;;;;8.23;5.20;;;23.70;99.90;;;;;;5130012;27;20018;-44
2023/10/01 14:33:33;;;;;;;8.30;5.05;;;23.70;99.90;;;;;;5063481;27;20092;-43
2023/10/01 14:36:03;;;;;;;7.60;4.78;;;23.70;99.90;;;;;;5129262;27;20057;-44
2023/10/01 14:38:41;;;;;;;7.78;5.07;;;23.70;99.90;;;;;;5043579;28;20370;-43
2023/10/01 14:41:10;;;;;;;8.00;4.80;;;23.70;99.90;;;;;;5123343;27;20087;-44
2023/10/01 14:43:48;;;;;;;8.35;5.25;;;23.60;99.90;;;;;;5044690;27;20072;-44